Spangler, PA (15775)

07:23 PM EDT del 01 Settembre 2014 (GMT -0400)
Colver | Change Station
CLOSE
Current Station
Stazione meteo personale
Location: Colver Streets, PA
Altitudine: 2149 ft
Stazioni meteo nelle vicinanze

Alt. 2149 ft 40.54 °N, 78.79 °W | Updated 7 minutes ago

Coperto
Coperto
74.2 °F
Sembra 73 °F
N
0.0
Vento Variabile Vento da SSE
Gusts 2.0 mph

Oggi
Massima -- | Minima -- °F
--% Possibilità di precip.
Ieri
Massima -- | Minima -- °F
Precip. -- in
6:42 AM 7:47 PM
Luna crescente, 45% visible
Pressione 30.01 in
Visibilità 9.0 miglia
Nuvole Alcuni 3700 ft
Nubi sparse 4600 ft
Nubi sparse 8000 ft
Indice di calore 73 °F
Punto di rugiada 70 °F
Umidità 87%
Piovosità 0.08 in
Spessore del manto nevoso Non disponibile.
Raggi UV 0 fuori da 12
Polline 6.70 fuori da 12
Qualità dell'aria Non disponibile.
Flu Activity Non disponibile.
METAR KIDI 012315Z AUTO 23005KT 9SM FEW037 SCT046 SCT080 25/22 A3001 RMK A01

More Conditions Fewer Conditions

Pressione 30.01 in
Visibilità 9.0 miglia
Nuvole Alcuni 3700 ft
Nubi sparse 4600 ft
Nubi sparse 8000 ft
Indice di calore 73 °F
Punto di rugiada 70 °F
Umidità 87%
Piovosità 0.08 in
Spessore del manto nevoso Non disponibile.
Raggi UV 0 fuori da 12
Polline 6.70 fuori da 12
Qualità dell'aria Non disponibile.
Flu Activity Non disponibile.
METAR KIDI 012315Z AUTO 23005KT 9SM FEW037 SCT046 SCT080 25/22 A3001 RMK A01

More Conditions Fewer Conditions

10-Day Weather Forecast

Almanac

Astronomia

Sep. 01, 2014 Alba Tramonto
Ora attuale 06:42 EDT 19:47 EDT
Crepuscolo civile 06:14 EDT 20:15 EDT
Crepuscolo nautico 05:40 EDT 20:48 EDT
Crepuscolo astronomico 05:05 EDT 21:23 EDT
Luna 13:28 EDT 23:44 EDT
Estensione della luce visibile 14h 01m
Lunghezza del giorno
13h 05m
Tomorrow will be 2m 36s shorter.
Luna crescente, 45% of the Moon is Illuminated
Oggi
Luna crescente
Set 2
Primo quarto
Set 8
Luna piena
Set 15
Ultimo quarto
Set 24
Nuovo

Gli estremi di oggi

State Highs State Lows

Community

WunderPhotos

Upload Photos

1,749,430 foto caricate!

Nearby

Profondità neve

Stazione Profondità Altitudine
Non sono state evidenziate nuove nevicate

Attività sismica

Città  Distanza Mag. Data & Ora
Non sono state riportate attività sismiche nelle vicinanze.
Minimo Magnitudo Mostrato è 2.5.

Temperature delle acque costiere

Località Temperatura
Nessun dato dalle stazioni

Stazioni meteo nelle vicinanze